Time;durP1;ratioP1;P1;durP2;ratioP2;P2;SDS_P1;SDS_P2;PMS_P1;PMS_P2;Temp;Humidity;BMP_temperature;BMP_pressure;BME280_temperature;BME280_humidity;BME280_pressure;Samples;Min_cycle;Max_cycle;Signal;HPM_P1;HPM_P2
2022/08/23 00:01:19;;;;;;;12.80;9.25;;;;;;;19.34;100.00;99620.66;5032933;28;20045;-73
2022/08/23 00:03:51;;;;;;;12.05;8.90;;;;;;;19.34;100.00;99620.66;5033012;28;20375;-73
2022/08/23 00:06:21;;;;;;;11.75;8.38;;;;;;;19.56;100.00;99623.81;5032626;28;20076;-73
2022/08/23 00:08:50;;;;;;;12.15;8.13;;;;;;;19.49;100.00;99620.03;5015502;28;20465;-73
2022/08/23 00:11:27;;;;;;;12.77;9.30;;;;;;;19.54;100.00;99623.09;5032732;28;20041;-75
2022/08/23 00:13:57;;;;;;;12.52;9.52;;;;;;;19.53;100.00;99618.69;5033302;28;20042;-72
2022/08/23 00:16:26;;;;;;;14.52;8.93;;;;;;;19.39;100.00;99618.31;5032862;28;20037;-75
2022/08/23 00:18:56;;;;;;;14.75;10.35;;;;;;;19.50;100.00;99619.03;5032816;28;20037;-76
2022/08/23 00:21:24;;;;;;;12.32;9.43;;;;;;;19.41;100.00;99616.31;5015063;28;20513;-76
2022/08/23 00:23:52;;;;;;;13.68;8.70;;;;;;;19.45;100.00;99616.81;5033017;28;20072;-76
2022/08/23 00:26:21;;;;;;;11.75;9.25;;;;;;;19.38;100.00;99616.59;5032605;28;20037;-75
2022/08/23 00:28:49;;;;;;;13.32;9.85;;;;;;;19.42;100.00;99609.88;5032738;28;20453;-75
2022/08/23 00:31:19;;;;;;;14.95;9.38;;;;;;;19.37;100.00;99614.06;5032558;28;20091;-74
2022/08/23 00:33:47;;;;;;;14.40;9.88;;;;;;;19.36;100.00;99613.22;5032901;28;20165;-75
2022/08/23 00:36:16;;;;;;;13.10;10.27;;;;;;;19.35;100.00;99610.69;5032653;28;20060;-74
2022/08/23 00:38:45;;;;;;;14.30;9.50;;;;;;;19.44;100.00;99610.56;5032616;28;20041;-75
2022/08/23 00:41:13;;;;;;;13.30;9.63;;;;;;;19.50;100.00;99619.88;5032737;28;20042;-75
2022/08/23 00:49:26;;;;;;;12.82;9.57;;;;;;;19.32;100.00;99633.50;5032449;28;20406;-76
2022/08/23 00:52:01;;;;;;;14.00;9.90;;;;;;;19.54;100.00;99632.06;5032488;28;20052;-76
2022/08/23 00:54:30;;;;;;;17.98;10.57;;;;;;;19.43;100.00;99633.22;5032583;28;20478;-76
2022/08/23 00:57:02;;;;;;;13.45;10.45;;;;;;;19.33;100.00;99629.78;5032620;28;20048;-75
2022/08/23 00:59:30;;;;;;;17.05;11.25;;;;;;;19.43;100.00;99645.88;5032334;28;20055;-74
2022/08/23 01:01:59;;;;;;;13.52;10.32;;;;;;;19.40;100.00;99647.06;5032452;28;20088;-74
2022/08/23 01:04:32;;;;;;;16.15;11.18;;;;;;;19.35;100.00;99648.56;5032401;28;20042;-74
2022/08/23 01:07:09;;;;;;;16.67;11.07;;;;;;;19.36;100.00;99651.09;5032568;28;20065;-78
2022/08/23 01:09:39;;;;;;;15.75;10.50;;;;;;;19.39;100.00;99648.03;5033015;28;20044;-78
2022/08/23 01:12:15;;;;;;;14.82;11.40;;;;;;;19.41;100.00;99646.06;5036130;28;20069;-78
2022/08/23 01:14:51;;;;;;;16.45;11.82;;;;;;;19.35;100.00;99645.84;5017955;28;20060;-77
2022/08/23 01:17:22;;;;;;;18.48;11.80;;;;;;;19.32;100.00;99648.88;5035848;28;20422;-77
2022/08/23 01:19:55;;;;;;;16.25;10.93;;;;;;;19.39;100.00;99647.19;5018259;28;20057;-77
2022/08/23 01:22:33;;;;;;;15.53;11.70;;;;;;;19.40;100.00;99649.78;5035752;28;20047;-77
2022/08/23 01:25:04;;;;;;;13.55;11.02;;;;;;;19.39;100.00;99649.91;5035764;28;20282;-75
2022/08/23 01:27:37;;;;;;;16.60;11.35;;;;;;;19.38;100.00;99651.75;5035357;28;20063;-75
2022/08/23 01:30:08;;;;;;;15.10;11.15;;;;;;;19.35;100.00;99646.69;5035471;28;20124;-76
2022/08/23 01:32:43;;;;;;;16.00;11.55;;;;;;;19.37;100.00;99660.91;5035452;28;20406;-75
2022/08/23 01:35:12;;;;;;;17.05;11.43;;;;;;;19.41;100.00;99658.72;5035874;28;20393;-76
2022/08/23 01:37:41;;;;;;;14.07;10.45;;;;;;;19.39;100.00;99661.56;5035068;28;20132;-76
2022/08/23 01:40:12;;;;;;;15.88;11.30;;;;;;;19.37;100.00;99669.00;5035296;28;20048;-76
2022/08/23 01:42:41;;;;;;;13.48;10.73;;;;;;;19.38;100.00;99665.28;5017393;28;20049;-76
2022/08/23 01:45:11;;;;;;;15.52;10.73;;;;;;;19.44;100.00;99664.66;5035285;28;20417;-76
2022/08/23 01:47:40;;;;;;;13.90;10.38;;;;;;;19.43;100.00;99660.25;5035113;28;20096;-76
2022/08/23 01:50:11;;;;;;;14.88;10.85;;;;;;;19.40;100.00;99671.41;5035214;28;20064;-76
2022/08/23 01:52:41;;;;;;;17.15;11.25;;;;;;;19.38;100.00;99665.28;5034908;28;20099;-75
2022/08/23 01:55:16;;;;;;;15.48;10.77;;;;;;;19.39;100.00;99674.25;5035233;28;20045;-75
2022/08/23 01:57:49;;;;;;;13.43;10.45;;;;;;;19.45;100.00;99674.44;5034825;28;20042;-76
2022/08/23 02:00:18;;;;;;;15.82;10.45;;;;;;;19.40;100.00;99668.69;5017649;28;20136;-76
2022/08/23 02:02:47;;;;;;;14.90;10.52;;;;;;;19.45;100.00;99671.75;5034940;28;20099;-76
2022/08/23 02:05:15;;;;;;;16.38;11.00;;;;;;;19.42;100.00;99676.66;5034800;28;20056;-79
2022/08/23 02:07:46;;;;;;;14.73;11.27;;;;;;;19.47;100.00;99673.44;5034892;28;20045;-79
2022/08/23 02:10:16;;;;;;;14.18;10.27;;;;;;;19.43;100.00;99671.06;5034943;28;20049;-79
2022/08/23 02:12:45;;;;;;;14.02;10.98;;;;;;;19.44;100.00;99675.47;5034361;28;20052;-79
2022/08/23 02:15:14;;;;;;;15.93;11.00;;;;;;;19.44;100.00;99675.47;5034858;28;20045;-79
2022/08/23 02:17:44;;;;;;;15.07;11.40;;;;;;;19.42;100.00;99674.78;5034449;28;20049;-79
2022/08/23 02:20:13;;;;;;;15.15;11.30;;;;;;;19.44;100.00;99674.63;5047169;28;20073;-79
2022/08/23 02:22:41;;;;;;;17.55;11.18;;;;;;;19.43;100.00;99684.59;5028586;28;20080;-77
2022/08/23 02:25:10;;;;;;;15.52;11.15;;;;;;;19.46;100.00;99683.41;5034726;28;20056;-74
2022/08/23 02:27:39;;;;;;;16.45;11.45;;;;;;;19.47;100.00;99678.84;5034249;28;20108;-74
2022/08/23 02:30:12;;;;;;;14.70;10.68;;;;;;;19.48;100.00;99683.25;5016674;28;20096;-74
2022/08/23 02:32:41;;;;;;;15.30;10.98;;;;;;;19.50;100.00;99686.66;5034059;28;20049;-74
2022/08/23 02:35:09;;;;;;;15.20;10.30;;;;;;;19.52;100.00;99687.34;5034446;28;20483;-74
2022/08/23 02:37:37;;;;;;;15.23;10.27;;;;;;;19.55;100.00;99692.41;5034145;28;20046;-74
2022/08/23 02:40:06;;;;;;;14.10;10.48;;;;;;;19.56;100.00;99694.97;5034300;28;20048;-74
2022/08/23 02:42:35;;;;;;;15.25;11.02;;;;;;;19.57;100.00;99701.22;5034027;28;20393;-74
2022/08/23 02:45:07;;;;;;;17.35;10.55;;;;;;;19.55;100.00;99700.53;5034272;28;20076;-74
2022/08/23 02:47:36;;;;;;;15.70;10.38;;;;;;;19.54;100.00;99701.53;5034296;28;20052;-74
2022/08/23 02:50:05;;;;;;;14.93;11.25;;;;;;;19.56;100.00;99704.94;5034157;28;20041;-74
2022/08/23 02:52:33;;;;;;;18.90;11.20;;;;;;;19.58;100.00;99702.94;5033831;28;20042;-74
2022/08/23 02:55:01;;;;;;;20.85;13.73;;;;;;;19.70;100.00;99707.06;5033909;28;20048;-74
2022/08/23 02:57:29;;;;;;;29.98;18.38;;;;;;;19.75;100.00;99704.69;5033655;28;20048;-77
2022/08/23 02:59:58;;;;;;;28.45;18.92;;;;;;;19.72;100.00;99711.28;5033942;28;20140;-76
2022/08/23 03:02:28;;;;;;;30.90;19.70;;;;;;;19.81;100.00;99714.88;5034067;28;20045;-76
2022/08/23 03:04:56;;;;;;;37.45;21.50;;;;;;;19.78;100.00;99715.16;5033948;28;20049;-77
2022/08/23 03:07:25;;;;;;;36.83;22.27;;;;;;;19.73;100.00;99709.41;5033919;28;20042;-74
2022/08/23 03:09:53;;;;;;;42.08;24.55;;;;;;;19.72;100.00;99722.09;5033653;28;20049;-73
2022/08/23 03:12:21;;;;;;;36.97;22.88;;;;;;;19.82;100.00;99715.72;5033682;28;20481;-73
2022/08/23 03:14:50;;;;;;;41.05;25.05;;;;;;;19.78;100.00;99717.88;5033555;28;20474;-73
2022/08/23 03:17:20;;;;;;;42.20;25.95;;;;;;;19.84;100.00;99719.94;5033733;28;20049;-73
2022/08/23 03:19:51;;;;;;;41.40;25.25;;;;;;;19.82;100.00;99721.13;5033293;28;20052;-73
2022/08/23 03:22:21;;;;;;;39.97;24.50;;;;;;;19.73;100.00;99720.25;5033388;28;20160;-73
2022/08/23 03:24:49;;;;;;;42.70;24.95;;;;;;;19.76;100.00;99716.34;5033252;28;20073;-73
2022/08/23 03:27:18;;;;;;;39.63;24.17;;;;;;;19.76;100.00;99728.03;5033584;28;20231;-77
2022/08/23 03:29:46;;;;;;;44.03;25.25;;;;;;;19.75;100.00;99723.63;5033189;28;20374;-75
2022/08/23 03:32:14;;;;;;;43.42;26.55;;;;;;;19.78;100.00;99726.00;5032778;28;20077;-75
2022/08/23 03:34:44;;;;;;;44.70;26.33;;;;;;;19.70;100.00;99723.28;5033226;28;20045;-75
2022/08/23 03:37:13;;;;;;;45.03;25.77;;;;;;;19.72;100.00;99719.41;5033438;28;20167;-76
2022/08/23 03:39:42;;;;;;;43.28;26.80;;;;;;;19.66;100.00;99727.31;5033208;28;20092;-76
2022/08/23 03:42:10;;;;;;;45.90;26.60;;;;;;;19.67;100.00;99734.41;5033568;28;20049;-75
2022/08/23 03:44:38;;;;;;;45.28;26.42;;;;;;;19.65;100.00;99728.31;5032972;28;20418;-76
2022/08/23 03:47:07;;;;;;;41.75;24.67;;;;;;;19.64;100.00;99723.94;5033123;28;20401;-75
2022/08/23 03:49:36;;;;;;;44.65;24.77;;;;;;;19.63;100.00;99730.34;5033148;28;20046;-78
2022/08/23 03:52:05;;;;;;;42.20;24.42;;;;;;;19.67;100.00;99737.13;5033207;28;20048;-78
2022/08/23 03:54:35;;;;;;;38.30;23.73;;;;;;;19.68;100.00;99744.22;5032884;28;20084;-78
2022/08/23 03:57:06;;;;;;;39.67;22.10;;;;;;;19.69;100.00;99743.25;5033037;28;20409;-78
2022/08/23 03:59:36;;;;;;;40.67;23.15;;;;;;;19.68;100.00;99742.34;5032809;28;20049;-78
2022/08/23 04:02:05;;;;;;;39.45;22.60;;;;;;;19.68;100.00;99746.94;5033412;28;20128;-78
2022/08/23 04:04:33;;;;;;;38.75;22.98;;;;;;;19.63;100.00;99755.53;5033048;28;20056;-78
2022/08/23 04:07:01;;;;;;;38.58;22.67;;;;;;;19.66;100.00;99763.31;5033092;28;20048;-78
2022/08/23 04:09:30;;;;;;;35.05;21.55;;;;;;;19.62;100.00;99767.38;5033007;28;20049;-78
2022/08/23 04:12:00;;;;;;;31.33;20.02;;;;;;;19.73;100.00;99761.69;5032733;28;20072;-78
2022/08/23 04:14:28;;;;;;;34.88;19.73;;;;;;;19.68;100.00;99768.56;5015035;28;20049;-78
2022/08/23 04:16:56;;;;;;;38.30;21.17;;;;;;;19.63;100.00;99769.06;5032607;28;20045;-78
2022/08/23 04:19:24;;;;;;;37.95;20.95;;;;;;;19.64;100.00;99764.50;5033006;28;20500;-78
2022/08/23 04:21:53;;;;;;;36.20;21.73;;;;;;;19.62;100.00;99753.00;5032632;28;20486;-78
2022/08/23 04:24:21;;;;;;;35.03;21.38;;;;;;;19.61;100.00;99757.56;5032882;28;20045;-77
2022/08/23 04:26:49;;;;;;;39.85;22.02;;;;;;;19.64;100.00;99756.38;5032467;28;20048;-78
2022/08/23 04:29:18;;;;;;;40.03;22.88;;;;;;;19.62;100.00;99753.00;5032936;28;20046;-76
2022/08/23 04:32:02;;;;;;;36.50;21.85;;;;;;;19.66;100.00;99757.06;5032872;28;20045;-75
2022/08/23 04:34:33;;;;;;;37.15;21.85;;;;;;;19.69;100.00;99759.47;5032933;28;20042;-75
2022/08/23 04:37:02;;;;;;;37.85;21.63;;;;;;;19.67;100.00;99759.59;5032642;28;20041;-75
2022/08/23 04:42:16;;;;;;;39.28;22.95;;;;;;;19.67;100.00;99766.88;5032866;28;20042;-75
2022/08/23 04:42:21;;;;;;;38.95;22.27;;;;;;;19.67;100.00;99769.59;5032612;28;20084;-80
2022/08/23 04:44:51;;;;;;;35.75;20.42;;;;;;;19.67;100.00;99778.53;5033310;28;20242;-77
2022/08/23 04:47:19;;;;;;;37.97;21.92;;;;;;;19.71;100.00;99779.09;5036266;28;20494;-77
2022/08/23 04:49:48;;;;;;;36.75;21.25;;;;;;;19.71;100.00;99779.94;5036069;28;20475;-75
2022/08/23 04:52:16;;;;;;;38.42;21.55;;;;;;;19.71;100.00;99784.50;5036487;28;20055;-76
2022/08/23 04:54:46;;;;;;;38.13;22.33;;;;;;;19.73;100.00;99787.88;5035960;28;20041;-76
2022/08/23 04:57:15;;;;;;;34.47;22.00;;;;;;;19.85;100.00;99792.00;5036294;28;20470;-76
2022/08/23 04:59:43;;;;;;;38.83;21.67;;;;;;;19.91;100.00;99790.50;5035832;28;20049;-74
2022/08/23 05:02:13;;;;;;;37.03;21.75;;;;;;;20.00;100.00;99789.53;5035839;28;20045;-76
2022/08/23 05:04:41;;;;;;;35.03;21.20;;;;;;;20.06;100.00;99796.13;5018147;28;20489;-76
2022/08/23 05:07:09;;;;;;;34.97;21.20;;;;;;;20.26;100.00;99794.81;5036210;28;20041;-78
2022/08/23 05:09:37;;;;;;;34.88;20.85;;;;;;;20.39;100.00;99799.78;5035770;28;20038;-76
2022/08/23 05:12:06;;;;;;;34.00;20.92;;;;;;;20.56;100.00;99799.69;5035970;28;20398;-74
2022/08/23 05:14:34;;;;;;;35.17;19.80;;;;;;;20.81;100.00;99799.69;5035718;28;20041;-74
2022/08/23 05:17:02;;;;;;;36.55;20.80;;;;;;;21.14;100.00;99792.41;5036066;28;20038;-74
2022/08/23 05:19:32;;;;;;;31.23;20.02;;;;;;;21.41;100.00;99800.16;5018163;28;20131;-74
2022/08/23 05:22:01;;;;;;;31.23;19.63;;;;;;;21.58;100.00;99806.41;5017679;28;20124;-77
2022/08/23 05:24:29;;;;;;;36.38;20.83;;;;;;;21.65;100.00;99804.69;5035758;28;20052;-74
2022/08/23 05:26:58;;;;;;;30.58;18.45;;;;;;;21.74;100.00;99808.25;5035358;28;20045;-76
2022/08/23 05:29:26;;;;;;;29.85;18.85;;;;;;;21.81;100.00;99811.06;5017665;28;20100;-74
2022/08/23 05:31:55;;;;;;;29.20;18.08;;;;;;;21.67;100.00;99810.78;5035329;28;20068;-76
2022/08/23 05:34:24;;;;;;;30.92;18.17;;;;;;;21.49;100.00;99810.16;5035526;28;20375;-78
2022/08/23 05:37:13;;;;;;;33.33;17.27;;;;;;;21.24;100.00;99819.34;5035615;28;20103;-74
2022/08/23 05:40:01;;;;;;;31.73;18.52;;;;;;;21.12;100.00;99822.38;5035330;28;20056;-73
2022/08/23 05:42:49;;;;;;;29.27;18.88;;;;;;;21.02;100.00;99829.00;5035582;28;20132;-75
2022/08/23 05:45:37;;;;;;;29.27;18.58;;;;;;;20.97;100.00;99832.22;5035504;28;20064;-76
2022/08/23 05:48:25;;;;;;;31.13;18.52;;;;;;;20.75;100.00;99832.88;5035640;28;20053;-76
2022/08/23 05:51:17;;;;;;;31.88;18.30;;;;;;;20.75;100.00;99839.16;5035705;28;20054;-80
2022/08/23 05:54:09;;;;;;;29.50;17.67;;;;;;;20.62;100.00;99837.94;5035030;28;20100;-75
2022/08/23 05:56:57;;;;;;;31.30;18.52;;;;;;;20.82;100.00;99842.03;5034322;28;20057;-78
2022/08/23 05:59:46;;;;;;;31.80;18.13;;;;;;;20.73;100.00;99845.75;5035018;28;20049;-78
2022/08/23 06:02:34;;;;;;;28.67;17.52;;;;;;;20.63;100.00;99845.06;5034989;28;20087;-80
2022/08/23 06:05:22;;;;;;;24.95;16.73;;;;;;;20.67;100.00;99857.28;5035371;28;20057;-81
2022/08/23 06:08:10;;;;;;;27.02;16.95;;;;;;;20.65;100.00;99860.13;5034815;28;20054;-79
2022/08/23 06:11:04;;;;;;;26.58;17.90;;;;;;;20.58;100.00;99862.69;5034336;28;20544;-79
2022/08/23 06:13:54;;;;;;;25.88;17.13;;;;;;;20.58;100.00;99865.38;5034816;28;20053;-78
2022/08/23 06:16:46;;;;;;;28.50;17.90;;;;;;;20.57;100.00;99879.94;5034523;28;20486;-81
2022/08/23 06:19:15;;;;;;;26.13;16.02;;;;;;;20.72;100.00;99876.59;5034653;28;20049;-82
2022/08/23 06:21:43;;;;;;;29.40;18.83;;;;;;;20.55;100.00;99876.53;5034364;28;20111;-83
2022/08/23 06:24:12;;;;;;;30.65;18.60;;;;;;;20.57;100.00;99873.69;5034267;28;20502;-78
2022/08/23 06:26:45;;;;;;;27.73;17.60;;;;;;;20.47;100.00;99867.56;5016953;28;20049;-77
2022/08/23 06:29:16;;;;;;;25.10;17.60;;;;;;;20.62;100.00;99882.16;5034397;28;20072;-76
2022/08/23 06:31:47;;;;;;;25.35;17.77;;;;;;;20.61;100.00;99885.03;5033617;28;20061;-77
2022/08/23 06:34:19;;;;;;;25.90;17.83;;;;;;;20.60;100.00;99881.47;5034666;28;20135;-78
2022/08/23 06:36:49;;;;;;;25.42;17.08;;;;;;;20.76;100.00;99877.97;5034186;28;20041;-79
2022/08/23 06:39:18;;;;;;;27.10;17.45;;;;;;;20.81;100.00;99881.00;5016785;28;20478;-80
2022/08/23 06:41:49;;;;;;;25.55;17.25;;;;;;;20.94;100.00;99875.97;5016076;28;20125;-81
2022/08/23 06:44:18;;;;;;;24.27;16.92;;;;;;;21.13;100.00;99874.75;5034449;28;20088;-77
2022/08/23 06:46:48;;;;;;;25.08;17.00;;;;;;;21.31;100.00;99880.03;5033934;28;20092;-77
2022/08/23 06:49:17;;;;;;;24.08;16.08;;;;;;;21.51;100.00;99886.81;5016556;28;20432;-77
2022/08/23 06:51:49;;;;;;;21.33;14.82;;;;;;;21.71;100.00;99885.44;5016178;28;20143;-77
2022/08/23 06:54:21;;;;;;;20.58;14.02;;;;;;;21.69;100.00;99879.31;5033954;28;20402;-80
2022/08/23 06:56:51;;;;;;;20.88;15.15;;;;;;;21.70;100.00;99883.72;5033620;28;20046;-77
2022/08/23 06:59:20;;;;;;;21.85;14.30;;;;;;;21.73;100.00;99881.72;5033893;28;20047;-74
2022/08/23 07:01:51;;;;;;;23.15;14.68;;;;;;;21.94;100.00;99890.13;5033565;28;20041;-75
2022/08/23 07:04:23;;;;;;;19.25;13.98;;;;;;;22.17;100.00;99884.81;5034087;28;20045;-74
2022/08/23 07:06:51;;;;;;;19.77;13.93;;;;;;;22.44;100.00;99891.66;5033161;28;20057;-75
2022/08/23 07:09:19;;;;;;;21.35;14.77;;;;;;;22.40;100.00;99906.63;5015522;28;20483;-74
2022/08/23 07:11:47;;;;;;;20.83;13.98;;;;;;;22.36;100.00;99900.69;5033489;28;20371;-75
2022/08/23 07:14:19;;;;;;;21.85;14.43;;;;;;;22.59;100.00;99898.06;5015941;28;20414;-74
2022/08/23 07:16:51;;;;;;;21.35;14.30;;;;;;;22.80;100.00;99903.69;5033622;28;20478;-75
2022/08/23 07:19:22;;;;;;;19.53;14.37;;;;;;;23.41;100.00;99896.47;5033878;28;20069;-74
2022/08/23 07:21:56;;;;;;;18.48;12.95;;;;;;;23.58;100.00;99893.59;5033141;28;20065;-75
2022/08/23 07:24:25;;;;;;;17.15;13.00;;;;;;;23.64;100.00;99906.47;5015735;28;20045;-74
2022/08/23 07:27:05;;;;;;;18.67;13.77;;;;;;;23.59;100.00;99898.88;5033360;28;20041;-75
2022/08/23 07:29:36;;;;;;;20.08;12.98;;;;;;;23.65;100.00;99902.75;5033726;28;20052;-75
2022/08/23 07:32:04;;;;;;;17.05;13.25;;;;;;;23.51;100.00;99900.81;5033122;28;20049;-75
2022/08/23 07:34:33;;;;;;;16.95;11.98;;;;;;;23.66;100.00;99910.72;5033279;28;20073;-75
2022/08/23 07:37:01;;;;;;;15.48;12.20;;;;;;;23.86;100.00;99911.03;5033004;28;20045;-73
2022/08/23 07:39:31;;;;;;;18.95;12.35;;;;;;;23.90;100.00;99906.91;5033100;28;20521;-74
2022/08/23 07:42:00;;;;;;;17.13;12.27;;;;;;;23.94;100.00;99907.38;5015078;28;20076;-75
2022/08/23 07:44:44;;;;;;;17.13;12.40;;;;;;;23.83;100.00;99905.94;5015141;28;20108;-75
2022/08/23 07:47:13;;;;;;;17.27;13.13;;;;;;;23.66;100.00;99907.16;5033260;28;20045;-75
2022/08/23 07:49:41;;;;;;;21.58;13.23;;;;;;;23.92;100.00;99909.44;5033090;28;20042;-74
2022/08/23 07:52:09;;;;;;;17.48;12.02;;;;;;;23.94;100.00;99910.97;5032934;28;20437;-74
2022/08/23 07:54:39;;;;;;;17.45;12.18;;;;;;;23.80;100.00;99906.31;5033114;28;20051;-75
2022/08/23 07:57:10;;;;;;;13.85;10.98;;;;;;;23.73;100.00;99912.69;5032638;28;20124;-75
2022/08/23 07:59:38;;;;;;;14.98;11.43;;;;;;;23.67;100.00;99901.53;5015348;28;20411;-75
2022/08/23 08:02:08;;;;;;;14.27;10.45;;;;;;;23.58;100.00;99905.31;5015044;28;20056;-74
2022/08/23 08:04:36;;;;;;;15.07;11.05;;;;;;;23.54;100.00;99906.72;5015526;28;20457;-75
2022/08/23 08:07:05;;;;;;;14.95;10.85;;;;;;;23.34;100.00;99906.38;5032578;28;20033;-74
2022/08/23 08:09:48;;;;;;;15.82;9.90;;;;;;;23.65;100.00;99900.03;5015097;28;20449;-75
2022/08/23 08:12:17;;;;;;;13.13;9.05;;;;;;;23.73;100.00;99904.53;5015377;28;20057;-75
2022/08/23 08:14:46;;;;;;;12.82;8.98;;;;;;;23.87;100.00;99912.72;5033064;28;20045;-74
2022/08/23 08:17:17;;;;;;;13.48;10.30;;;;;;;23.93;100.00;99901.09;5032844;28;20038;-74
2022/08/23 08:19:46;;;;;;;13.85;9.82;;;;;;;24.05;100.00;99909.66;5017978;28;20120;-74
2022/08/23 08:22:14;;;;;;;14.13;9.57;;;;;;;24.18;100.00;99918.00;5036755;28;20472;-75
2022/08/23 08:24:42;;;;;;;12.98;9.68;;;;;;;24.26;100.00;99922.50;5036734;28;20099;-74
2022/08/23 08:27:11;;;;;;;15.38;10.07;;;;;;;24.38;100.00;99921.03;5018788;28;20064;-74
2022/08/23 08:29:40;;;;;;;13.55;9.45;;;;;;;23.90;100.00;99927.84;5019201;28;20124;-75
2022/08/23 08:32:08;;;;;;;12.05;9.80;;;;;;;23.74;100.00;99926.16;5018558;28;20065;-75
2022/08/23 08:34:42;;;;;;;17.90;10.30;;;;;;;23.58;100.00;99923.53;5018502;28;20132;-75
2022/08/23 08:37:11;;;;;;;13.20;9.38;;;;;;;23.90;100.00;99934.13;5036083;28;20304;-75
2022/08/23 08:39:44;;;;;;;13.82;9.43;;;;;;;24.02;100.00;99942.69;5036331;28;20092;-75
2022/08/23 08:42:30;;;;;;;;;;;;;;;24.20;100.00;99936.88;5018521;28;20053;-75
2022/08/23 08:45:03;;;;;;;11.88;8.95;;;;;;;24.38;100.00;99937.38;5017844;28;19928;-75
2022/08/23 08:47:38;;;;;;;11.80;8.35;;;;;;;24.49;100.00;99938.78;5036399;28;20053;-75
2022/08/23 08:50:14;;;;;;;10.65;6.95;;;;;;;24.62;100.00;99943.56;5018407;28;20457;-74
2022/08/23 08:52:47;;;;;;;8.25;5.80;;;;;;;24.58;100.00;99942.25;5018356;28;20053;-74
2022/08/23 08:55:21;;;;;;;8.48;5.68;;;;;;;24.50;100.00;99944.03;5036044;28;20041;-74
2022/08/23 08:57:52;;;;;;;10.77;5.93;;;;;;;24.63;100.00;99950.72;5018267;28;20045;-74
2022/08/23 09:00:23;;;;;;;13.77;5.35;;;;;;;24.79;100.00;99947.75;5036144;28;20049;-74
2022/08/23 09:02:51;;;;;;;8.35;5.53;;;;;;;24.87;100.00;99939.47;5035750;28;20049;-75
2022/08/23 09:05:25;;;;;;;9.50;6.35;;;;;;;24.81;100.00;99951.16;5018566;28;20125;-74
2022/08/23 09:08:11;;;;;;;8.95;6.15;;;;;;;24.76;100.00;99945.41;5017942;28;20132;-75
2022/08/23 09:11:01;;;;;;;7.78;6.22;;;;;;;24.82;100.00;99939.19;5036102;28;20116;-74
2022/08/23 09:13:54;;;;;;;8.57;5.97;;;;;;;24.96;100.00;99943.75;5018179;28;20049;-74
2022/08/23 09:16:38;;;;;;;7.80;5.03;;;;;;;25.11;100.00;99944.59;5035795;28;20544;-73
2022/08/23 09:19:06;;;;;;;8.13;4.80;;;;;;;25.36;100.00;99936.00;5035599;28;20065;-74
2022/08/23 09:21:45;;;;;;;7.82;5.32;;;;;;;25.10;100.00;99936.63;5035560;28;20060;-74
2022/08/23 09:24:14;;;;;;;8.07;5.40;;;;;;;25.25;100.00;99933.81;5035365;28;20041;-74
2022/08/23 09:26:43;;;;;;;6.57;4.93;;;;;;;25.55;100.00;99934.50;5035176;28;20086;-75
2022/08/23 09:29:19;;;;;;;8.23;5.45;;;;;;;25.74;100.00;99933.84;5035061;28;20041;-74
2022/08/23 09:31:51;;;;;;;8.55;5.35;;;;;;;25.81;100.00;99933.91;5017135;28;20064;-74
2022/08/23 09:34:36;;;;;;;8.27;5.50;;;;;;;25.69;100.00;99941.78;5035507;28;20070;-74
2022/08/23 09:37:17;;;;;;;8.70;4.90;;;;;;;25.65;100.00;99944.03;5017317;28;20049;-75
2022/08/23 09:39:50;;;;;;;9.43;5.25;;;;;;;25.58;100.00;99940.44;5017898;28;20140;-74
2022/08/23 09:42:31;;;;;;;8.45;5.20;;;;;;;25.63;100.00;99937.94;5017680;28;20053;-74
2022/08/23 09:45:00;;;;;;;7.70;4.78;;;;;;;25.77;100.00;99946.25;5035131;28;20068;-74
2022/08/23 09:47:35;;;;;;;10.40;5.95;;;;;;;25.84;100.00;99948.00;5035126;28;20504;-74
2022/08/23 09:50:23;;;;;;;9.82;5.10;;;;;;;25.79;100.00;99944.22;5035070;28;20049;-74
2022/08/23 09:52:59;;;;;;;7.47;4.30;;;;;;;25.68;100.00;99940.09;5035234;28;20045;-74
2022/08/23 09:55:31;;;;;;;6.47;4.60;;;;;;;25.75;100.00;99942.88;5017263;28;20057;-74
2022/08/23 09:58:01;;;;;;;8.30;5.17;;;;;;;25.55;100.00;99940.81;5016814;28;20572;-75
2022/08/23 10:00:32;;;;;;;6.95;5.03;;;;;;;25.52;100.00;99943.94;5034793;28;20286;-74
2022/08/23 10:03:23;;;;;;;8.45;4.68;;;;;;;25.54;100.00;99944.59;5034989;28;20363;-74
2022/08/23 10:05:54;;;;;;;7.75;4.38;;;;;;;25.67;100.00;99944.72;5034946;28;20099;-74
2022/08/23 10:08:28;;;;;;;7.45;5.05;;;;;;;25.66;100.00;99948.47;5034816;28;20128;-74
2022/08/23 10:11:02;;;;;;;6.70;4.40;;;;;;;25.72;100.00;99940.56;5034830;28;20099;-74
2022/08/23 10:13:31;;;;;;;7.05;4.35;;;;;;;25.78;100.00;99943.38;5017170;28;20049;-74
2022/08/23 10:16:09;;;;;;;9.32;4.90;;;;;;;25.81;100.00;99944.84;5016431;28;20608;-75
2022/08/23 10:18:54;;;;;;;8.02;4.88;;;;;;;25.86;100.00;99953.28;5016936;28;20042;-74
2022/08/23 10:21:30;;;;;;;7.95;4.90;;;;;;;26.03;100.00;99946.47;5034761;28;20076;-74
2022/08/23 10:24:15;;;;;;;7.55;4.60;;;;;;;26.09;100.00;99953.03;5034353;28;20467;-75
2022/08/23 10:26:58;;;;;;;8.63;4.85;;;;;;;26.02;100.00;99950.25;5034594;28;20068;-74
2022/08/23 10:29:42;;;;;;;8.88;4.70;;;;;;;25.76;100.00;99947.31;5034659;28;20103;-74
2022/08/23 10:32:22;;;;;;;8.15;4.90;;;;;;;25.74;100.00;99935.75;5016398;28;20051;-74
2022/08/23 10:35:01;;;;;;;6.43;5.13;;;;;;;25.72;100.00;99941.41;5034446;28;20137;-74
2022/08/23 10:37:51;;;;;;;8.50;4.97;;;;;;;25.46;100.00;99952.06;5034165;28;20049;-75
2022/08/23 10:40:28;;;;;;;8.32;4.90;;;;;;;25.36;100.00;99945.03;5034040;28;20042;-74
2022/08/23 10:43:13;;;;;;;6.85;4.45;;;;;;;25.54;100.00;99946.47;5034271;28;20140;-74
2022/08/23 10:45:43;;;;;;;7.85;4.53;;;;;;;25.69;100.00;99950.81;5016533;28;20050;-75
2022/08/23 10:48:26;;;;;;;6.20;4.30;;;;;;;25.97;100.00;99944.56;5016088;28;20620;-75
2022/08/23 10:50:56;;;;;;;;;;;;;;;25.95;100.00;99943.88;5016948;28;20072;-74
2022/08/23 10:53:31;;;;;;;9.80;5.90;;;;;;;25.73;100.00;99947.72;5016470;28;19921;-75
2022/08/23 10:56:04;;;;;;;8.88;5.68;;;;;;;25.88;100.00;99941.13;5033858;28;20450;-74
2022/08/23 10:58:39;;;;;;;8.23;5.18;;;;;;;26.07;100.00;99938.72;5033709;28;20037;-74
2022/08/23 11:01:09;;;;;;;9.15;5.82;;;;;;;25.65;100.00;99940.47;5015961;28;20077;-74
2022/08/23 11:03:43;;;;;;;9.15;6.15;;;;;;;25.72;100.00;99938.69;5015925;28;20128;-74
2022/08/23 11:06:43;;;;;;;8.18;5.70;;;;;;;25.93;100.00;99943.25;5033268;28;20045;-74
2022/08/23 11:09:31;;;;;;;8.57;5.28;;;;;;;25.73;100.00;99939.53;5015644;28;20057;-74
2022/08/23 11:12:16;;;;;;;7.72;5.47;;;;;;;25.96;100.00;99934.63;5033449;28;20053;-75
2022/08/23 11:14:48;;;;;;;9.68;5.78;;;;;;;25.91;100.00;99928.94;5015894;28;20053;-74
2022/08/23 11:17:26;;;;;;;11.73;5.68;;;;;;;26.10;100.00;99932.84;5033281;28;20041;-74
2022/08/23 11:19:59;;;;;;;9.07;5.97;;;;;;;26.06;100.00;99934.31;5015984;28;20129;-74
2022/08/23 11:22:29;;;;;;;10.35;5.65;;;;;;;26.13;100.00;99941.50;5033781;28;20490;-74
2022/08/23 11:25:01;;;;;;;7.90;5.55;;;;;;;26.10;100.00;99936.44;5033650;28;20041;-74
2022/08/23 11:27:37;;;;;;;10.20;5.82;;;;;;;26.22;100.00;99929.34;5015589;28;20493;-74
2022/08/23 11:30:46;;;;;;;7.55;5.53;;;;;;;26.40;100.00;99933.47;5033297;28;20047;-74
2022/08/23 11:33:18;;;;;;;8.18;5.60;;;;;;;26.29;100.00;99931.28;5015202;28;20052;-75
2022/08/23 11:35:49;;;;;;;7.00;5.30;;;;;;;26.25;100.00;99933.59;5015455;28;20481;-75
2022/08/23 11:38:58;;;;;;;9.93;5.18;;;;;;;26.33;100.00;99933.41;5033128;28;20045;-74
2022/08/23 11:41:29;;;;;;;11.02;5.80;;;;;;;26.60;100.00;99928.94;5029936;28;20062;-74
2022/08/23 11:44:27;;;;;;;10.90;5.38;;;;;;;27.26;100.00;99933.81;5033226;28;20060;-74
2022/08/23 11:47:02;;;;;;;7.85;5.18;;;;;;;27.29;100.00;99928.75;5031861;28;20053;-74